createdAt,value
2023-05-21T00:01:16.607Z,6.45
2023-05-21T00:05:32.869Z,6.43
2023-05-21T00:09:49.102Z,6.37
2023-05-21T00:14:05.641Z,6.97
2023-05-21T00:18:22.452Z,6.32
2023-05-21T00:22:38.788Z,6.35
2023-05-21T00:26:55.072Z,6.25
2023-05-21T00:31:11.363Z,7.20
2023-05-21T00:35:27.655Z,7.07
2023-05-21T00:39:43.852Z,6.47
2023-05-21T00:44:00.584Z,7.05
2023-05-21T00:48:16.873Z,7.57
2023-05-21T00:52:33.595Z,6.43
2023-05-21T00:56:50.989Z,6.35
2023-05-21T01:01:07.372Z,6.68
2023-05-21T01:05:23.687Z,6.47
2023-05-21T01:09:41.268Z,6.28
2023-05-21T01:13:57.594Z,7.03
2023-05-21T01:18:14.721Z,7.12
2023-05-21T01:22:32.681Z,7.07
2023-05-21T01:26:49.821Z,6.50
2023-05-21T01:31:15.693Z,7.30
2023-05-21T01:35:39.514Z,6.78
2023-05-21T01:40:00.348Z,6.37
2023-05-21T01:44:18.643Z,7.10
2023-05-21T01:48:35.278Z,7.22
2023-05-21T01:52:57.231Z,7.40
2023-05-21T01:57:13.839Z,7.18
2023-05-21T02:01:30.570Z,7.25
2023-05-21T02:05:47.538Z,7.03
2023-05-21T02:10:04.186Z,6.50
2023-05-21T02:14:20.771Z,7.25
2023-05-21T02:18:37.146Z,6.30
2023-05-21T02:22:53.373Z,6.78
2023-05-21T02:27:10.840Z,7.22
2023-05-21T02:31:27.120Z,6.72
2023-05-21T02:35:44.201Z,6.97
2023-05-21T02:40:01.438Z,6.57
2023-05-21T02:44:19.508Z,6.80
2023-05-21T02:48:35.969Z,6.57
2023-05-21T02:52:52.605Z,6.85
2023-05-21T02:57:08.826Z,6.82
2023-05-21T03:01:25.126Z,7.22
2023-05-21T03:05:41.638Z,6.87
2023-05-21T03:09:57.933Z,6.80
2023-05-21T03:14:14.808Z,6.85
2023-05-21T03:18:31.013Z,7.03
2023-05-21T03:22:48.472Z,6.78
2023-05-21T03:27:06.766Z,7.30
2023-05-21T03:31:26.940Z,6.68
2023-05-21T03:35:43.443Z,6.93
2023-05-21T03:39:59.741Z,6.85
2023-05-21T03:44:15.942Z,6.87
2023-05-21T03:48:32.566Z,6.40
2023-05-21T03:52:48.833Z,6.93
2023-05-21T03:57:05.199Z,7.03
2023-05-21T04:01:21.667Z,6.55
2023-05-21T04:05:38.186Z,7.03
2023-05-21T04:09:54.547Z,6.50
2023-05-21T04:14:10.903Z,7.00
2023-05-21T04:18:27.280Z,6.95
2023-05-21T04:22:44.075Z,6.60
2023-05-21T04:27:01.763Z,6.47
2023-05-21T04:31:18.195Z,6.68
2023-05-21T04:35:35.719Z,6.40
2023-05-21T04:39:52.255Z,6.95
2023-05-21T04:44:09.406Z,6.70
2023-05-21T04:48:27.672Z,6.47
2023-05-21T04:52:45.822Z,7.00
2023-05-21T04:57:03.165Z,6.78
2023-05-21T05:01:19.584Z,6.40
2023-05-21T05:05:36.032Z,6.72
2023-05-21T05:09:52.484Z,6.00
2023-05-21T05:14:08.888Z,6.37
2023-05-21T05:18:25.052Z,6.10
2023-05-21T05:22:41.427Z,6.32
2023-05-21T05:26:57.681Z,6.10
2023-05-21T05:31:14.242Z,5.15
2023-05-21T05:35:30.384Z,5.18
2023-05-21T05:39:46.441Z,5.25
2023-05-21T05:44:02.562Z,5.07
2023-05-21T05:48:18.724Z,5.40
2023-05-21T05:52:34.863Z,5.65
2023-05-21T05:56:51.013Z,5.28
2023-05-21T06:01:07.347Z,5.47
2023-05-21T06:05:23.609Z,5.62
2023-05-21T06:09:39.884Z,5.43
2023-05-21T06:13:56.295Z,5.40
2023-05-21T06:18:12.548Z,4.87
2023-05-21T06:22:28.787Z,5.32
2023-05-21T06:26:44.999Z,5.20
2023-05-21T06:31:01.249Z,5.22
2023-05-21T06:35:17.505Z,4.47
2023-05-21T06:39:33.759Z,5.12
2023-05-21T06:43:49.979Z,5.20
2023-05-21T06:48:06.636Z,5.22
2023-05-21T06:52:22.824Z,5.20
2023-05-21T06:56:40.565Z,4.80
2023-05-21T07:00:57.671Z,4.80
2023-05-21T07:05:13.968Z,4.75
2023-05-21T07:09:30.339Z,4.97
2023-05-21T07:13:46.604Z,4.90
2023-05-21T07:18:03.769Z,4.10
2023-05-21T07:22:20.014Z,4.65
2023-05-21T07:26:36.365Z,4.80
2023-05-21T07:30:52.611Z,4.68
2023-05-21T07:35:09.117Z,4.50
2023-05-21T07:39:25.309Z,4.18
2023-05-21T07:43:41.525Z,4.35
2023-05-21T07:47:57.797Z,4.03
2023-05-21T07:52:13.960Z,4.12
2023-05-21T07:56:30.269Z,3.60
2023-05-21T08:00:47.750Z,3.72
2023-05-21T08:05:04.226Z,3.70
2023-05-21T08:09:20.435Z,3.70
2023-05-21T08:13:36.796Z,3.87
2023-05-21T08:17:53.021Z,3.67
2023-05-21T08:22:09.366Z,3.55
2023-05-21T08:26:25.877Z,3.60
2023-05-21T08:30:42.122Z,3.90
2023-05-21T08:34:58.398Z,3.30
2023-05-21T08:39:14.630Z,3.47
2023-05-21T08:43:31.072Z,3.10
2023-05-21T08:47:47.952Z,3.37
2023-05-21T08:52:05.087Z,3.85
2023-05-21T08:56:21.410Z,3.55
2023-05-21T09:00:37.858Z,3.87
2023-05-21T09:05:00.162Z,3.65
2023-05-21T09:09:33.306Z,3.75
2023-05-21T09:13:51.042Z,3.53
2023-05-21T09:18:07.294Z,3.40
2023-05-21T09:22:24.721Z,3.78
2023-05-21T09:26:44.337Z,3.35
2023-05-21T09:31:03.590Z,3.85
2023-05-21T09:35:22.948Z,2.95
2023-05-21T09:39:40.345Z,3.78
2023-05-21T09:44:01.248Z,3.40
2023-05-21T09:48:17.440Z,3.30
2023-05-21T09:52:36.268Z,3.62
2023-05-21T09:56:53.820Z,3.55
2023-05-21T10:01:15.777Z,3.20
2023-05-21T10:05:32.796Z,3.47
2023-05-21T10:09:51.184Z,3.70
2023-05-21T10:14:16.640Z,3.17
2023-05-21T10:18:33.756Z,3.33
2023-05-21T10:22:50.759Z,3.40
2023-05-21T10:27:07.700Z,3.72
2023-05-21T10:31:25.040Z,3.58
2023-05-21T10:35:41.483Z,3.55
2023-05-21T10:39:57.853Z,3.90
2023-05-21T10:44:58.416Z,3.72
2023-05-21T10:49:51.697Z,3.22
2023-05-21T10:54:31.912Z,3.83
2023-05-21T10:59:26.028Z,3.83
2023-05-21T11:03:42.461Z,3.62
2023-05-21T11:07:59.286Z,3.47
2023-05-21T11:12:15.587Z,3.78
2023-05-21T11:16:31.857Z,4.07
2023-05-21T11:20:51.958Z,3.33
2023-05-21T11:25:08.505Z,3.53
2023-05-21T11:29:40.459Z,3.53
2023-05-21T11:34:28.478Z,4.18
2023-05-21T11:39:04.970Z,3.28
2023-05-21T11:43:21.814Z,3.17
2023-05-21T11:47:38.068Z,3.40
2023-05-21T11:51:54.205Z,3.62
2023-05-21T11:56:12.330Z,3.65
2023-05-21T12:00:28.623Z,3.50
2023-05-21T12:04:46.608Z,3.53
2023-05-21T12:09:04.638Z,3.10
2023-05-21T12:13:22.654Z,3.47
2023-05-21T12:17:39.447Z,3.20
2023-05-21T12:21:56.304Z,3.50
2023-05-21T12:26:12.643Z,3.17
2023-05-21T12:30:29.167Z,3.40
2023-05-21T12:34:47.442Z,3.50
2023-05-21T12:39:03.780Z,3.42
2023-05-21T12:43:20.356Z,3.20
2023-05-21T12:47:37.156Z,3.05
2023-05-21T12:51:56.577Z,3.53
2023-05-21T12:56:13.749Z,2.87
2023-05-21T13:00:30.034Z,3.33
2023-05-21T13:04:46.766Z,3.12
2023-05-21T13:09:03.031Z,3.20
2023-05-21T13:13:19.438Z,2.92
2023-05-21T13:17:36.119Z,3.25
2023-05-21T13:21:52.323Z,2.80
2023-05-21T13:26:09.982Z,2.78
2023-05-21T13:30:26.326Z,3.00
2023-05-21T13:34:42.468Z,4.00
2023-05-21T13:38:58.820Z,2.85
2023-05-21T13:43:15.031Z,2.85
2023-05-21T13:47:32.513Z,3.08
2023-05-21T13:51:48.821Z,3.08
2023-05-21T13:56:05.852Z,3.03
2023-05-21T14:00:22.293Z,3.15
2023-05-21T14:04:39.546Z,3.40
2023-05-21T14:08:56.026Z,3.03
2023-05-21T14:13:19.553Z,3.28
2023-05-21T14:17:36.567Z,3.05
2023-05-21T14:21:53.010Z,3.08
2023-05-21T14:26:09.229Z,3.08
2023-05-21T14:30:25.534Z,3.45
2023-05-21T14:34:41.753Z,3.15
2023-05-21T14:38:57.965Z,3.00
2023-05-21T14:43:14.282Z,3.20
2023-05-21T14:47:30.657Z,3.55
2023-05-21T14:51:47.785Z,3.45
2023-05-21T14:56:04.183Z,3.55
2023-05-21T15:00:20.586Z,3.40
2023-05-21T15:04:36.713Z,3.30
2023-05-21T15:08:53.627Z,3.40
2023-05-21T15:13:10.039Z,3.37
2023-05-21T15:17:26.332Z,3.37
2023-05-21T15:21:42.529Z,3.10
2023-05-21T15:25:58.813Z,2.90
2023-05-21T15:30:15.083Z,3.50
2023-05-21T15:34:32.026Z,4.85
2023-05-21T15:38:48.315Z,3.45
2023-05-21T15:43:04.629Z,3.72
2023-05-21T15:47:20.968Z,3.80
2023-05-21T15:51:37.357Z,3.53
2023-05-21T15:55:53.665Z,3.40
2023-05-21T16:00:11.139Z,7.28
2023-05-21T16:04:27.393Z,5.40
2023-05-21T16:08:43.704Z,3.85
2023-05-21T16:13:00.302Z,3.30
2023-05-21T16:17:17.005Z,2.92
2023-05-21T16:21:33.983Z,3.22
2023-05-21T16:25:50.578Z,3.42
2023-05-21T16:30:07.795Z,3.10
2023-05-21T16:34:24.148Z,3.20
2023-05-21T16:38:40.478Z,3.15
2023-05-21T16:42:56.673Z,3.22
2023-05-21T16:47:12.798Z,3.40
2023-05-21T16:51:29.082Z,3.30
2023-05-21T16:55:45.336Z,3.47
2023-05-21T17:00:04.375Z,3.72
2023-05-21T17:04:20.636Z,3.37
2023-05-21T17:08:37.010Z,3.30
2023-05-21T17:12:53.738Z,3.20
2023-05-21T17:17:09.987Z,3.40
2023-05-21T17:21:26.930Z,3.33
2023-05-21T17:25:43.289Z,3.80
2023-05-21T17:29:59.702Z,3.50
2023-05-21T17:34:16.852Z,3.20
2023-05-21T17:38:33.456Z,3.80
2023-05-21T17:42:49.643Z,3.50
2023-05-21T17:47:06.967Z,3.53
2023-05-21T17:51:23.324Z,3.40
2023-05-21T17:55:40.104Z,3.67
2023-05-21T17:59:56.448Z,4.12
2023-05-21T18:04:13.404Z,3.83
2023-05-21T18:08:29.708Z,3.72
2023-05-21T18:12:46.619Z,4.07
2023-05-21T18:17:02.911Z,4.00
2023-05-21T18:21:19.336Z,3.97
2023-05-21T18:25:36.066Z,3.67
2023-05-21T18:29:52.559Z,3.97
2023-05-21T18:34:08.831Z,4.07
2023-05-21T18:38:25.183Z,4.25
2023-05-21T18:42:41.790Z,3.95
2023-05-21T18:46:58.697Z,4.00
2023-05-21T18:51:14.999Z,4.43
2023-05-21T18:55:31.205Z,4.45
2023-05-21T18:59:47.409Z,4.00
2023-05-21T19:04:03.695Z,3.95
2023-05-21T19:08:19.870Z,5.62
2023-05-21T19:12:36.540Z,4.60
2023-05-21T19:16:53.193Z,5.35
2023-05-21T19:21:09.583Z,4.25
2023-05-21T19:25:25.877Z,4.28
2023-05-21T19:29:42.320Z,4.60
2023-05-21T19:33:58.607Z,4.35
2023-05-21T19:38:16.126Z,4.85
2023-05-21T19:42:32.285Z,4.65
2023-05-21T19:46:50.131Z,4.75
2023-05-21T19:51:06.475Z,4.07
2023-05-21T19:55:23.013Z,4.43
2023-05-21T19:59:39.199Z,4.35
2023-05-21T20:03:55.786Z,5.35
2023-05-21T20:08:13.490Z,4.87
2023-05-21T20:12:29.896Z,4.75
2023-05-21T20:16:47.398Z,4.70
2023-05-21T20:21:06.562Z,4.70
2023-05-21T20:25:22.962Z,4.78
2023-05-21T20:29:39.292Z,4.50
2023-05-21T20:33:55.588Z,5.53
2023-05-21T20:38:12.744Z,4.70
2023-05-21T20:42:34.327Z,4.62
2023-05-21T20:46:50.766Z,5.62
2023-05-21T20:51:07.104Z,4.57
2023-05-21T20:55:23.301Z,4.85
2023-05-21T20:59:39.477Z,5.15
2023-05-21T21:03:55.831Z,4.93
2023-05-21T21:08:12.426Z,4.72
2023-05-21T21:12:28.824Z,4.87
2023-05-21T21:16:45.268Z,4.90
2023-05-21T21:21:01.636Z,5.18
2023-05-21T21:25:17.971Z,6.28
2023-05-21T21:29:34.254Z,5.18
2023-05-21T21:33:50.611Z,4.87
2023-05-21T21:38:06.895Z,5.07
2023-05-21T21:42:23.187Z,5.10
2023-05-21T21:46:39.724Z,5.37
2023-05-21T21:50:55.994Z,4.47
2023-05-21T21:55:12.668Z,5.05
2023-05-21T21:59:29.476Z,5.50
2023-05-21T22:03:45.964Z,5.30
2023-05-21T22:08:03.756Z,4.80
2023-05-21T22:12:19.980Z,4.55
2023-05-21T22:16:36.735Z,5.15
2023-05-21T22:20:53.021Z,5.07
2023-05-21T22:25:09.584Z,4.95
2023-05-21T22:29:25.885Z,4.82
2023-05-21T22:33:42.299Z,4.50
2023-05-21T22:37:58.962Z,5.07
2023-05-21T22:42:15.236Z,5.03
2023-05-21T22:46:32.233Z,4.57
2023-05-21T22:50:50.330Z,5.00
2023-05-21T22:55:06.976Z,4.95
2023-05-21T22:59:23.232Z,5.18
2023-05-21T23:03:39.468Z,4.82
2023-05-21T23:07:55.902Z,4.00
2023-05-21T23:12:12.376Z,4.20
2023-05-21T23:16:30.989Z,4.50
2023-05-21T23:20:47.300Z,4.30
2023-05-21T23:25:04.109Z,3.87
2023-05-21T23:29:20.306Z,4.00
2023-05-21T23:33:36.625Z,4.15
2023-05-21T23:37:52.805Z,4.25
2023-05-21T23:42:09.146Z,4.50
2023-05-21T23:46:25.297Z,4.50
2023-05-21T23:50:41.717Z,4.37
2023-05-21T23:54:58.191Z,4.37
2023-05-21T23:59:16.873Z,5.03
